Hagelkans (24u)

Maximale Windstoten (24u)

Maximale Neerslag (24u)

Maximale bewolking (24u)

Minimumtemperatuur (24u)

Maximumtemperatuur (24u)

Neerslag & Bliksem

Onweer Ontladingen

[Source: ADDS]
METAR
EBBR 231920Z 08003KT CAVOK 07/02 Q1025 NOSIG =
TAF
EBBR 231700Z 2318/2424 03005KT 9999 SCT045 BECMG 2406/2408 23010KT =
SR / SS: 04:30 / 18:51 UTC (Brussels 2017-04-23)

Today 296

Yesterday 293

Week 2140

Month 6572

All 4913461

Kubik-Rubik Joomla! Extensions

Go to top